Calgary / Okotoks Air Park

CFX2 · 艾伯塔, 加拿大

METAR的历史 CFX2 · Calgary / Okotoks Air Park

下面你可以看到过去几天的METARs。 选择年份以浏览从2007年开始的旧METAR。

2024年7月17日

时间 代码 天气 温度 能见度 天花板 METAR/SPECI
04:00
V
20 °C 15 mi - 200° 200° 4 kt METAR CYYC 171000Z 20004KT 15SM FEW220 20/15 A3010 RMK CI1 CI TR DIST FREQ LTGCG E SLP177 DENSITY ALT 4800FT
03:00
V
20 °C 15 mi - 190° 190° 3 kt METAR CYYC 170900Z 19003KT 15SM FEW130 20/15 A3011 RMK AC2 SLP180 DENSITY ALT 4900FT
02:00
V
21 °C 15 mi 13.000 ft 160° 160° 5 kt METAR CYYC 170800Z 16005KT 15SM BKN130 21/15 A3011 RMK AC5 SLP178 DENSITY ALT 4900FT
01:00
V
21 °C 10 mi 12.000 ft 190° 190° 5 kt METAR CYYC 170700Z 19005KT 10SM BKN120 21/15 A3011 RMK AC6 SLP178 DENSITY ALT 5000FT
00:00
V
21 °C 15 mi - 180° 180° 6 kt METAR CYYC 170600Z 18006KT 15SM SCT120 21/15 A3010 RMK AC3 SLP178 DENSITY ALT 5000FT

2024年7月16日

时间 代码 天气 温度 能见度 天花板 METAR/SPECI
23:00
V
21 °C 10 mi - 180° 180° 6 kt METAR CYYC 170500Z 18006KT 10SM SCT130 21/14 A3010 RMK AC3 SLP179 DENSITY ALT 5000FT
22:00
V
24 °C 10 mi - 170° 170° 6 kt METAR CYYC 170400Z 17006KT 10SM FEW140 SCT250 24/14 A3010 RMK AC1CI2 SLP176 DENSITY ALT 5300FT
21:00
V
25 °C 10 mi - 150° 150° 11 kt METAR CYYC 170300Z 15011KT 10SM FEW140 SCT250 25/15 A3009 RMK AC1CI2 CB TOPS S SLP172 DENSITY ALT 5500FT
20:00
V
27 °C 10 mi - 160° 160° 9 kt METAR CYYC 170200Z 16009KT 10SM FEW140 SCT240 27/15 A3009 RMK AC2CI2 CB TOPS S SLP174 DENSITY ALT 5600FT
19:00
V
28 °C 15 mi - 140° 140° 10 kt METAR CYYC 170100Z 14010KT 15SM FEW150 SCT280 28/14 A3009 RMK AC2CI3 CB TOPS ALQDS SLP174 DENSITY ALT 5700FT
18:00
V
27 °C 15 mi 23.000 ft 170° 170° 8 kt METAR CYYC 170000Z 17008KT 15SM BKN230 27/14 A3010 RMK CI6 SLP180 DENSITY ALT 5600FT
17:00
V
29 °C 8 mi 5.300 ft 160° 160° 11 - 16 kt METAR CYYC 162300Z 16011G16KT 120V190 8SM BKN053CB 29/15 A3009 RMK CB5 SLP173 DENSITY ALT 5900FT
16:00
V
28 °C 10 mi - 130° 130° 12 - 18 kt METAR CYYC 162200Z 13012G18KT 110V170 10SM SCT054CB 28/15 A3010 RMK CB4 SLP178 DENSITY ALT 5700FT
15:00
V
27 °C 10 mi - 160° 160° 12 kt METAR CYYC 162100Z 16012KT 080V180 10SM FEW048CB SCT150 27/15 A3011 RMK CB2AC1 ACSL ASOCTD CB TOPS SW AND NW SLP182 DENSITY ALT 5600FT
14:00
V
27 °C 10 mi - 130° 130° 11 - 17 kt METAR CYYC 162000Z 13011G17KT 10SM FEW053CB FEW160 27/14 A3011 RMK CB1AC1 AC TR CB TOPS NW SLP178 DENSITY ALT 5600FT
13:00
V
27 °C 10 mi - 090° 090° 10 - 16 kt METAR CYYC 161900Z 09010G16KT 10SM FEW043TCU 27/16 A3012 RMK TCU1 SLP182 DENSITY ALT 5600FT
12:00
V
26 °C 8 mi - 080° 080° 9 kt METAR CYYC 161800Z 08009KT 070V130 8SM FEW041TCU 26/16 A3012 RMK TCU1 HZ SLP182 DENSITY ALT 5500FT
11:00
V
25 °C 8 mi - 180° 180° 5 kt METAR CYYC 161700Z 18005KT 140V230 8SM FEW049 SCT090 25/13 A3012 RMK CU1ACC3 CU TR HZ SLP182 DENSITY ALT 5400FT
10:00
V
23 °C 8 mi - 170° 170° 4 kt METAR CYYC 161600Z 17004KT 100V200 8SM SCT091 23/13 A3012 RMK ACC3 SLP186 DENSITY ALT 5200FT
09:00
V
23 °C 15 mi - 360° 360° 0 kt METAR CYYC 161500Z 00000KT 15SM FEW110 23/14 A3011 RMK ACC2 SLP181 DENSITY ALT 5200FT
08:00
V
20 °C 10 mi - 360° 360° 0 kt METAR CYYC 161400Z 00000KT 10SM FEW110 20/13 A3011 RMK AC2 SLP182 DENSITY ALT 4800FT
07:00
V
18 °C 15 mi 10.000 ft 260° 260° 5 kt METAR CYYC 161300Z 26005KT 220V290 15SM BKN100 BKN180 18/13 A3010 RMK AC5AC1 ACC ASOCTD NE SLP178 DENSITY ALT 4700FT
06:00
V
17 °C 15 mi 11.000 ft 360° 360° 0 kt METAR CYYC 161200Z 00000KT 15SM SCT084 BKN110 17/13 A3009 RMK AC3AC3 SLP176 DENSITY ALT 4600FT
05:00
V
18 °C 15 mi 14.000 ft 330° 330° 4 kt METAR CYYC 161100Z 33004KT 320V020 15SM R35R/3000VP6000FT/U FEW072 BKN140 18/14 A3007 RMK AC2AC3 SLP170 DENSITY ALT 4600FT
04:00
V
19 °C 15 mi 11.000 ft 360° 360° 4 kt METAR CYYC 161000Z 36004KT 300V060 15SM FEW056CB SCT074 BKN110 19/14 A3007 RMK CB1AC3AC4 CB TR CB NE-E SLP167 DENSITY ALT 4800FT
03:00
V
18 °C 15 mi 6.800 ft 010° 010° 4 kt METAR CYYC 160900Z 01004KT 15SM FEW056CB BKN068 BKN110 18/14 A3006 RMK CB1AC5AC2 CB TR CB N-SE MOVG SE/OCNL LTGICCG NE-E SLP164 DENSITY ALT 4700FT
02:48
V
18 °C 15 mi 11.000 ft 350° 350° 3 kt METAR CYYC 160848Z 35003KT 15SM FEW056CB BKN110 18/14 A3005 RMK CB1AC5 CB TR CB N-SE MOVG SE/OCNL LTGICCG NE-E SLP161 DENSITY ALT 4700FT
02:00
V
21 °C 15 mi 11.000 ft Var Var 2 kt METAR CYYC 160800Z VRB02KT 15SM TS FEW056CB BKN110 BKN190 21/14 A3004 RMK CB1AC5AC1 CB TR CB N AND E MOVG SE/OCNL LTGICCG N AND FREQ LTGICCG E SLP155 DENSITY ALT 5100FT
01:00
V
22 °C 15 mi 11.000 ft 180° 180° 3 kt METAR CYYC 160700Z 18003KT 15SM FEW056CB BKN110 22/14 A3004 RMK CB1AC5 CB TR DIST SH NE/FREQ LTGICCG NE/CB N-NE MOVG S SLP153 DENSITY ALT 5100FT
00:56
V
22 °C 15 mi 11.000 ft 190° 190° 4 kt METAR CYYC 160656Z 19004KT 15SM TS FEW056CB BKN110 22/13 A3004 RMK CB1AC5 CB TR OCNL LTGIC NE/CB NE MOVG S SLP153 DENSITY ALT 5200FT
00:00
V
22 °C 15 mi 17.000 ft 190° 190° 2 kt METAR CYYC 160600Z 19002KT 15SM SCT110 BKN170 22/14 A3003 RMK AC3AC3 SLP150 DENSITY ALT 5200FT

2024年7月15日

时间 代码 天气 温度 能见度 天花板 METAR/SPECI
23:00
V
22 °C 15 mi 16.000 ft 130° 130° 5 kt METAR CYYC 160500Z 13005KT 15SM BKN160 22/14 A3002 RMK AC5 SLP152 DENSITY ALT 5200FT
22:00
V
22 °C 15 mi 15.000 ft 100° 100° 6 kt METAR CYYC 160400Z 10006KT 15SM BKN150 22/13 A3001 RMK AC5 SLP153 DENSITY ALT 5100FT
21:00
V
24 °C 20 mi 25.000 ft 070° 070° 6 kt METAR CYYC 160300Z 07006KT 20SM SCT160 BKN250 24/12 A3000 RMK AC3CI2 SLP147 DENSITY ALT 5400FT
20:00
V
25 °C 20 mi 14.000 ft 050° 050° 8 kt METAR CYYC 160200Z 05008KT 20SM BKN140 BKN250 25/11 A2999 RMK AC5CI1 SLP145 DENSITY ALT 5500FT
19:00
V
27 °C 15 mi - 060° 060° 11 - 18 kt METAR CYYC 160100Z 06011G18KT 15SM SCT300 27/11 A2998 RMK CI3 SLP143 DENSITY ALT 5700FT
18:00
V
27 °C 15 mi - 020° 020° 9 kt METAR CYYC 160000Z 02009KT 15SM FEW300 27/11 A2998 RMK CI2 SLP143 DENSITY ALT 5800FT
17:00
V
28 °C 15 mi - 020° 020° 12 - 20 kt METAR CYYC 152300Z 02012G20KT 15SM SCT300 28/12 A2998 RMK CI4 SLP141 DENSITY ALT 5900FT
16:00
V
28 °C 15 mi 30.000 ft 030° 030° 11 - 19 kt METAR CYYC 152200Z 03011G19KT 15SM FEW061 BKN300 28/12 A2997 RMK CU1CI5 CU TR SLP137 DENSITY ALT 5900FT
15:00
V
28 °C 15 mi 30.000 ft 010° 010° 10 - 16 kt METAR CYYC 152100Z 01010G16KT 15SM FEW180 BKN300 28/08 A2997 RMK AC1CI5 AC TR SLP138 DENSITY ALT 5900FT
14:00
V
28 °C 15 mi 30.000 ft 010° 010° 10 kt METAR CYYC 152000Z 01010KT 15SM BKN300 28/10 A2997 RMK CI6 SLP137 DENSITY ALT 5800FT
13:00
V
27 °C 15 mi - 010° 010° 9 kt METAR CYYC 151900Z 01009KT 320V050 15SM FEW058 FEW300 27/13 A2997 RMK CU1CI2 CU TR SLP136 DENSITY ALT 5800FT
12:00
V
26 °C 8 mi - 010° 010° 6 kt METAR CYYC 151800Z 01006KT 300V110 8SM FEW300 26/14 A2997 RMK CI1 SLP138 DENSITY ALT 5600FT
11:00
V
23 °C 8 mi - Var Var 2 kt METAR CYYC 151700Z VRB02KT 8SM FEW300 23/14 A2998 RMK CI1 HZ SLP142 DENSITY ALT 5300FT
10:00
V
20 °C 8 mi - 110° 110° 3 kt METAR CYYC 151600Z 11003KT 080V190 8SM FEW300 20/14 A2999 RMK CI2 HZ SLP149 DENSITY ALT 5000FT
09:00
V
18 °C 8 mi - 190° 190° 3 kt METAR CYYC 151500Z 19003KT 150V240 8SM FEW210 18/13 A2999 RMK CI1 HZ SLP152 DENSITY ALT 4800FT
08:00
V
16 °C 9 mi - 230° 230° 2 kt METAR CYYC 151400Z 23002KT 9SM FEW230 16/12 A2999 RMK CI2 SLP156 DENSITY ALT 4500FT
07:00
V
14 °C 20 mi - 190° 190° 4 kt METAR CYYC 151300Z 19004KT 20SM FEW140 SCT240 14/12 A2999 RMK AC1CI3 AC TR HZ / CONTRAILS SLP158 DENSITY ALT 4300FT
06:00
V
13 °C 20 mi - 180° 180° 6 kt METAR CYYC 151200Z 18006KT 20SM FEW120 SCT240 13/11 A3000 RMK AC1CI2 SLP162 DENSITY ALT 4200FT
05:00
V
13 °C 10 mi - 170° 170° 7 kt METAR CYYC 151100Z 17007KT 10SM FEW110 13/12 A3001 RMK AC2 SLP165 DENSITY ALT 4200FT
04:00
V
14 °C 10 mi - 190° 190° 8 kt METAR CYYC 151000Z 19008KT 10SM FEW110 14/12 A3001 RMK AC2 SLP168 DENSITY ALT 4300FT
03:00
V
14 °C 10 mi - 190° 190° 7 kt METAR CYYC 150900Z 19007KT 10SM FEW110 14/12 A3003 RMK AC2 SLP175 DENSITY ALT 4200FT
02:00
V
15 °C 10 mi - 190° 190° 7 kt METAR CYYC 150800Z 19007KT 10SM FEW110 15/12 A3005 RMK AC2 SLP176 DENSITY ALT 4300FT
01:00
V
16 °C 10 mi - 200° 200° 7 kt METAR CYYC 150700Z 20007KT 10SM FEW110 16/13 A3006 RMK AC2 SLP178 DENSITY ALT 4400FT
00:00
V
16 °C 10 mi - 180° 180° 7 kt METAR CYYC 150600Z 18007KT 10SM FEW048 16/13 A3006 RMK SC2 SLP177 DENSITY ALT 4400FT
报告变更